Time;durP1;ratioP1;P1;durP2;ratioP2;P2;SDS_P1;SDS_P2;PMS_P1;PMS_P2;Temp;Humidity;BMP_temperature;BMP_pressure;BME280_temperature;BME280_humidity;BME280_pressure;Samples;Min_cycle;Max_cycle;Signal;HPM_P1;HPM_P2
2023/01/04 00:02:06;;;;;;;6.85;1.30;;;7.90;99.90;;;;;;5037779;28;20045;-64
2023/01/04 00:04:31;;;;;;;7.15;1.30;;;8.00;99.90;;;;;;5003233;28;20126;-65
2023/01/04 00:06:57;;;;;;;4.80;1.27;;;8.00;99.90;;;;;;5003263;28;20072;-64
2023/01/04 00:09:23;;;;;;;8.45;1.42;;;8.00;99.90;;;;;;4992253;28;20057;-65
2023/01/04 00:11:48;;;;;;;10.65;1.85;;;8.00;99.90;;;;;;5018574;28;20081;-65
2023/01/04 00:14:16;;;;;;;8.80;2.13;;;8.10;99.90;;;;;;5036560;28;20041;-64
2023/01/04 00:16:41;;;;;;;5.38;1.15;;;8.10;99.90;;;;;;5037198;28;20540;-64
2023/01/04 00:19:09;;;;;;;7.97;1.58;;;8.00;99.90;;;;;;5037282;28;20046;-65
2023/01/04 00:21:35;;;;;;;13.90;1.80;;;8.00;99.90;;;;;;5008230;28;20041;-65
2023/01/04 00:24:01;;;;;;;6.90;1.42;;;8.10;99.90;;;;;;5036085;28;20085;-65
2023/01/04 00:26:32;;;;;;;9.07;1.48;;;8.20;99.90;;;;;;5037573;28;20036;-64
2023/01/04 00:29:05;;;;;;;9.50;1.50;;;8.20;99.90;;;;;;5037156;28;20040;-64
2023/01/04 00:31:32;;;;;;;7.22;1.35;;;8.20;99.90;;;;;;5002675;28;20041;-64
2023/01/04 00:34:01;;;;;;;7.22;1.63;;;8.20;99.90;;;;;;5019324;28;20513;-64
2023/01/04 00:36:28;;;;;;;9.38;1.85;;;8.10;99.90;;;;;;5018384;28;20720;-65
2023/01/04 00:39:06;;;;;;;9.23;1.38;;;8.10;99.90;;;;;;5019275;28;20041;-65
2023/01/04 00:41:33;;;;;;;6.75;1.10;;;8.10;99.90;;;;;;5037196;28;20049;-64
2023/01/04 00:44:02;;;;;;;7.18;1.45;;;8.20;99.90;;;;;;5036486;28;20419;-64
2023/01/04 00:46:28;;;;;;;5.40;1.20;;;8.20;99.90;;;;;;5034029;28;20033;-64
2023/01/04 00:48:54;;;;;;;8.50;1.40;;;8.10;99.90;;;;;;5037253;28;20148;-64
2023/01/04 00:51:19;;;;;;;9.05;1.67;;;8.20;99.90;;;;;;4985380;28;20041;-65
2023/01/04 00:53:45;;;;;;;8.18;1.65;;;8.10;99.90;;;;;;5019991;28;20045;-64
2023/01/04 00:56:11;;;;;;;7.20;1.88;;;8.10;99.90;;;;;;5019013;28;20044;-64
2023/01/04 00:58:36;;;;;;;9.00;1.70;;;8.00;99.90;;;;;;5017860;28;20506;-65
2023/01/04 01:01:06;;;;;;;5.78;1.67;;;8.00;1.00;;;;;;5017758;28;20461;-65
2023/01/04 01:03:32;;;;;;;7.10;1.63;;;8.00;1.00;;;;;;5008352;28;20048;-65
2023/01/04 01:06:06;;;;;;;7.57;1.88;;;8.00;1.00;;;;;;5012613;28;20498;-64
2023/01/04 01:08:33;;;;;;;9.02;1.60;;;7.90;1.00;;;;;;5034937;28;20049;-64
2023/01/04 01:11:05;;;;;;;8.10;1.85;;;7.80;1.00;;;;;;5018018;28;20088;-64
2023/01/04 01:13:31;;;;;;;9.80;1.58;;;7.90;1.00;;;;;;5018194;28;20076;-64
2023/01/04 01:16:08;;;;;;;7.15;1.70;;;7.90;22.10;;;;;;5018955;28;20044;-64
2023/01/04 01:18:36;;;;;;;7.07;2.10;;;7.90;6.20;;;;;;5036680;28;20365;-65
2023/01/04 01:21:06;;;;;;;5.63;1.85;;;8.00;66.00;;;;;;5036866;28;20126;-64
2023/01/04 01:23:32;;;;;;;7.15;1.63;;;7.90;36.00;;;;;;5002873;28;20052;-63
2023/01/04 01:26:02;;;;;;;7.72;2.05;;;7.90;99.90;;;;;;5019725;28;20044;-65
2023/01/04 01:28:28;;;;;;;6.25;1.60;;;7.90;68.90;;;;;;5035939;28;20449;-65
2023/01/04 01:30:54;;;;;;;5.60;1.40;;;7.90;77.90;;;;;;5036278;28;20029;-65
2023/01/04 01:33:20;;;;;;;6.00;1.48;;;8.10;92.70;;;;;;5014277;28;20032;-64
2023/01/04 01:35:46;;;;;;;5.13;1.45;;;8.10;73.10;;;;;;5037326;28;20044;-63
2023/01/04 01:38:11;;;;;;;5.60;1.70;;;8.10;1.00;;;;;;5035688;28;20428;-62
2023/01/04 01:40:41;;;;;;;5.60;1.20;;;8.10;90.00;;;;;;5019050;28;20041;-63
2023/01/04 01:43:19;;;;;;;5.88;1.80;;;8.10;4.40;;;;;;5018195;28;20044;-64
2023/01/04 01:45:48;;;;;;;7.55;1.77;;;8.10;96.70;;;;;;5019171;28;20047;-64
2023/01/04 01:48:25;;;;;;;5.95;1.75;;;8.00;99.90;;;;;;5001143;28;20037;-62
2023/01/04 01:51:01;;;;;;;6.97;1.83;;;7.90;99.90;;;;;;5017164;28;20029;-64
2023/01/04 01:53:31;;;;;;;8.07;2.30;;;7.90;99.90;;;;;;5036530;28;20441;-63
2023/01/04 01:55:58;;;;;;;9.77;2.50;;;7.90;99.90;;;;;;5017956;28;20037;-64
2023/01/04 01:58:34;;;;;;;5.68;1.58;;;7.80;99.90;;;;;;5017788;28;20130;-64
2023/01/04 02:01:00;;;;;;;6.15;1.73;;;7.80;99.90;;;;;;5018580;28;20534;-65
2023/01/04 02:03:32;;;;;;;6.38;1.63;;;7.80;99.90;;;;;;5036569;28;20049;-63
2023/01/04 02:06:01;;;;;;;6.20;1.63;;;7.70;99.90;;;;;;5001123;28;20071;-63
2023/01/04 02:08:28;;;;;;;7.60;2.00;;;7.80;99.90;;;;;;5003053;28;21033;-63
2023/01/04 02:10:54;;;;;;;4.70;1.45;;;7.80;99.90;;;;;;5040327;28;20064;-64
2023/01/04 02:14:25;;;;;;;5.50;2.22;;;7.80;99.90;;;;;;5039038;28;20048;-64
2023/01/04 02:16:16;;;;;;;7.50;2.05;;;7.70;99.90;;;;;;5021584;28;20045;-64
2023/01/04 02:18:52;;;;;;;7.40;2.33;;;7.70;99.90;;;;;;5039734;28;20072;-63
2023/01/04 02:21:25;;;;;;;8.65;1.85;;;7.60;99.90;;;;;;5005656;28;20578;-63
2023/01/04 02:24:18;;;;;;;5.95;1.70;;;7.60;99.90;;;;;;5039219;28;20044;-64
2023/01/04 02:27:29;;;;;;;6.13;1.85;;;7.60;99.90;;;;;;5011039;28;20051;-63
2023/01/04 02:30:12;;;;;;;5.43;2.40;;;7.70;99.90;;;;;;5035261;28;20045;-64
2023/01/04 02:32:44;;;;;;;;;;;7.60;99.90;;;;;;5040108;28;20156;-63
2023/01/04 02:35:28;;;;;;;3.75;2.05;;;7.80;99.90;;;;;;5021611;28;19928;-64
2023/01/04 02:37:59;;;;;;;5.03;1.80;;;7.80;99.90;;;;;;5039740;28;20041;-65
2023/01/04 02:40:32;;;;;;;4.53;1.67;;;7.70;99.90;;;;;;5040599;28;20049;-65
2023/01/04 02:45:58;;;;;;;5.13;1.80;;;7.60;99.90;;;;;;5037899;28;20197;-64
2023/01/04 02:51:30;;;;;;;4.75;1.73;;;7.90;99.90;;;;;;5006735;28;20135;-64
2023/01/04 02:53:59;;;;;;;6.65;1.83;;;7.70;99.90;;;;;;5038910;28;20100;-65
2023/01/04 02:56:53;;;;;;;2.38;1.40;;;7.90;99.90;;;;;;5038763;28;20044;-64
2023/01/04 02:59:35;;;;;;;2.00;0.82;;;7.70;99.90;;;;;;5021510;28;20120;-65
2023/01/04 03:08:04;;;;;;;2.28;0.80;;;7.70;99.90;;;;;;5039892;28;20063;-64
2023/01/04 03:10:48;;;;;;;3.28;1.10;;;7.90;99.90;;;;;;5038134;28;20083;-64
2023/01/04 03:13:34;;;;;;;3.92;1.13;;;7.90;99.90;;;;;;5019189;28;20787;-64
2023/01/04 03:16:17;;;;;;;1.40;0.95;;;8.00;99.90;;;;;;5002580;28;20087;-64
2023/01/04 03:18:47;;;;;;;2.20;1.40;;;7.90;99.90;;;;;;5020112;28;20040;-64
2023/01/04 03:21:15;;;;;;;1.98;1.00;;;7.80;99.90;;;;;;5003925;28;20052;-64
2023/01/04 03:35:21;;;;;;;2.35;0.80;;;7.90;99.90;;;;;;5020294;28;20045;-66
2023/01/04 03:43:08;;;;;;;4.78;1.25;;;8.10;99.90;;;;;;5006437;28;20070;-65
2023/01/04 03:49:56;;;;;;;3.20;1.48;;;8.00;99.90;;;;;;5030732;28;19975;-64
2023/01/04 03:52:25;;;;;;;2.47;1.42;;;8.30;99.90;;;;;;5021957;28;20095;-63
2023/01/04 03:54:52;;;;;;;2.33;1.15;;;8.30;99.90;;;;;;5038643;28;20557;-64
2023/01/04 03:57:19;;;;;;;2.40;1.73;;;8.10;99.90;;;;;;5021360;28;20043;-65
2023/01/04 03:59:51;;;;;;;2.92;1.38;;;8.10;99.90;;;;;;5020362;28;20463;-65
2023/01/04 04:02:22;;;;;;;3.78;1.88;;;8.30;99.90;;;;;;5037928;28;20163;-63
2023/01/04 04:10:19;;;;;;;2.30;0.95;;;8.60;99.90;;;;;;5021732;28;20053;-65
2023/01/04 04:12:47;;;;;;;3.97;1.00;;;8.20;99.90;;;;;;5019841;28;20116;-65
2023/01/04 04:15:13;;;;;;;3.88;0.70;;;8.70;99.90;;;;;;5038260;28;20044;-64
2023/01/04 04:17:39;;;;;;;3.13;0.70;;;8.50;99.90;;;;;;5021262;28;20393;-65
2023/01/04 04:20:05;;;;;;;1.23;0.40;;;8.40;99.90;;;;;;5038713;28;20101;-65
2023/01/04 04:22:31;;;;;;;1.98;0.80;;;8.90;99.90;;;;;;5039065;28;20075;-63
2023/01/04 04:24:57;;;;;;;1.63;0.60;;;8.90;99.90;;;;;;5011516;28;20453;-64
2023/01/04 04:27:22;;;;;;;0.70;0.40;;;8.80;99.90;;;;;;5003579;28;20049;-64
2023/01/04 04:29:48;;;;;;;1.27;0.50;;;8.80;99.90;;;;;;5019155;28;20094;-64
2023/01/04 04:32:13;;;;;;;1.05;0.47;;;9.10;99.90;;;;;;5036793;28;20033;-64
2023/01/04 04:34:39;;;;;;;2.05;0.57;;;9.20;99.90;;;;;;5004102;28;20118;-64
2023/01/04 04:37:05;;;;;;;1.75;0.73;;;9.20;99.90;;;;;;5036810;28;20728;-63
2023/01/04 04:39:31;;;;;;;0.90;0.50;;;8.80;99.90;;;;;;5037411;28;20689;-64
2023/01/04 04:41:57;;;;;;;1.00;0.45;;;9.10;99.90;;;;;;5037652;28;20203;-67
2023/01/04 04:44:22;;;;;;;1.50;0.50;;;9.30;99.90;;;;;;5002849;28;20045;-65
2023/01/04 04:46:49;;;;;;;2.03;0.63;;;9.30;99.90;;;;;;5002014;28;20359;-66
2023/01/04 04:49:15;;;;;;;1.00;0.85;;;9.00;99.90;;;;;;5018798;28;20047;-66
2023/01/04 04:51:42;;;;;;;1.40;0.80;;;9.40;99.90;;;;;;4989920;28;20368;-65
2023/01/04 04:54:10;;;;;;;1.23;0.95;;;9.40;99.90;;;;;;5018570;28;20029;-65
2023/01/04 04:56:36;;;;;;;2.17;1.05;;;9.20;99.90;;;;;;5019875;28;20041;-66
2023/01/04 04:59:03;;;;;;;1.23;1.02;;;9.60;99.90;;;;;;5019648;28;20052;-65
2023/01/04 05:01:29;;;;;;;2.58;0.90;;;9.60;99.90;;;;;;5002628;28;20045;-65
2023/01/04 05:03:55;;;;;;;1.67;1.17;;;9.30;99.90;;;;;;5018578;28;20187;-65
2023/01/04 05:06:21;;;;;;;1.92;1.15;;;9.60;99.90;;;;;;5042747;28;20045;-65
2023/01/04 05:08:46;;;;;;;1.30;1.13;;;9.70;99.90;;;;;;5037535;28;20484;-66
2023/01/04 05:11:13;;;;;;;1.10;1.00;;;9.90;99.90;;;;;;5020960;28;20487;-63
2023/01/04 05:13:39;;;;;;;2.17;2.08;;;9.90;99.90;;;;;;5020966;28;20132;-63
2023/01/04 05:16:06;;;;;;;2.67;2.10;;;9.50;99.90;;;;;;5019741;28;20052;-64
2023/01/04 05:18:32;;;;;;;2.60;2.08;;;9.60;99.90;;;;;;5002640;28;20134;-64
2023/01/04 05:20:58;;;;;;;1.63;1.40;;;9.80;99.90;;;;;;5002984;28;20036;-64
2023/01/04 05:23:24;;;;;;;3.22;2.75;;;9.80;99.90;;;;;;5020087;28;20451;-64
2023/01/04 05:25:55;;;;;;;2.13;1.90;;;10.00;99.90;;;;;;5039190;28;20042;-65
2023/01/04 05:28:21;;;;;;;2.50;1.60;;;9.70;99.90;;;;;;5018051;28;20128;-65
2023/01/04 05:30:50;;;;;;;2.42;2.22;;;9.70;99.90;;;;;;5018941;28;20401;-65
2023/01/04 05:33:24;;;;;;;3.30;2.05;;;9.90;99.90;;;;;;5002094;28;20044;-66
2023/01/04 05:35:51;;;;;;;2.88;2.60;;;10.20;99.90;;;;;;5037462;28;20533;-65
2023/01/04 05:38:17;;;;;;;1.92;1.83;;;9.90;99.90;;;;;;5019027;28;20048;-66
2023/01/04 05:40:44;;;;;;;1.70;1.52;;;10.20;99.90;;;;;;5018616;28;20046;-67
2023/01/04 05:43:11;;;;;;;2.55;1.40;;;10.00;99.90;;;;;;5026614;28;20486;-65
2023/01/04 05:45:37;;;;;;;1.70;1.60;;;10.30;99.90;;;;;;5022884;28;20049;-68
2023/01/04 05:48:03;;;;;;;2.47;1.40;;;10.20;99.90;;;;;;5004668;28;20044;-67
2023/01/04 05:50:29;;;;;;;1.92;1.83;;;10.00;99.90;;;;;;5039663;28;20398;-67
2023/01/04 05:52:55;;;;;;;2.65;2.40;;;10.40;99.90;;;;;;4999048;28;20079;-65
2023/01/04 05:55:20;;;;;;;0.93;0.70;;;10.00;99.90;;;;;;5039274;28;20037;-65
2023/01/04 05:57:46;;;;;;;2.45;0.85;;;10.30;99.90;;;;;;5006058;28;20072;-65
2023/01/04 06:00:13;;;;;;;1.92;1.83;;;10.10;99.90;;;;;;5022357;28;20044;-67
2023/01/04 06:02:40;;;;;;;1.67;1.17;;;10.60;99.90;;;;;;5023054;28;20045;-66
2023/01/04 06:05:06;;;;;;;2.22;1.20;;;10.50;99.90;;;;;;5006568;28;20045;-67
2023/01/04 06:07:32;;;;;;;1.60;1.10;;;10.60;99.90;;;;;;5007083;28;20060;-66
2023/01/04 06:09:58;;;;;;;1.55;1.25;;;10.20;99.90;;;;;;5006480;28;20045;-67
2023/01/04 06:12:24;;;;;;;3.67;2.13;;;10.50;99.90;;;;;;5021683;28;20122;-66
2023/01/04 06:14:50;;;;;;;1.42;1.23;;;10.20;99.90;;;;;;5006050;28;20186;-67
2023/01/04 06:17:16;;;;;;;3.30;0.80;;;10.30;99.90;;;;;;5005856;28;20051;-69
2023/01/04 06:19:41;;;;;;;1.88;0.90;;;10.40;99.90;;;;;;5004486;28;20063;-68
2023/01/04 06:22:07;;;;;;;0.80;0.73;;;10.30;99.90;;;;;;5021992;28;20036;-69
2023/01/04 06:24:33;;;;;;;1.27;0.60;;;10.40;99.90;;;;;;5021353;28;20392;-70
2023/01/04 06:27:00;;;;;;;2.58;0.57;;;10.10;99.90;;;;;;5021026;28;20053;-69
2023/01/04 06:29:25;;;;;;;1.23;0.50;;;10.10;99.90;;;;;;5020804;28;20621;-69
2023/01/04 06:31:51;;;;;;;0.63;0.40;;;10.60;99.90;;;;;;4990883;28;20116;-68
2023/01/04 06:34:17;;;;;;;0.70;0.40;;;10.60;99.90;;;;;;5004449;28;20041;-68
2023/01/04 06:36:42;;;;;;;1.40;0.60;;;10.20;99.90;;;;;;5021360;28;20047;-69
2023/01/04 06:39:11;;;;;;;0.40;0.30;;;10.10;99.90;;;;;;5039406;28;20045;-68
2023/01/04 06:41:37;;;;;;;1.95;0.50;;;10.20;99.90;;;;;;5011715;28;20399;-68
2023/01/04 06:44:03;;;;;;;0.60;0.30;;;10.60;99.90;;;;;;5042254;28;20099;-68
2023/01/04 06:46:28;;;;;;;1.30;0.50;;;10.60;99.90;;;;;;5020328;28;20128;-68
2023/01/04 06:48:54;;;;;;;1.83;0.60;;;10.20;99.90;;;;;;5020039;28;20491;-69
2023/01/04 06:51:20;;;;;;;2.35;0.50;;;10.60;99.90;;;;;;5004434;28;20908;-68
2023/01/04 06:53:46;;;;;;;2.20;0.70;;;10.30;99.90;;;;;;5019614;28;20048;-68
2023/01/04 06:56:12;;;;;;;1.23;0.60;;;10.50;99.90;;;;;;5018546;28;20126;-69
2023/01/04 06:58:38;;;;;;;1.17;0.47;;;10.60;99.90;;;;;;4988523;28;20186;-69
2023/01/04 07:01:04;;;;;;;1.67;0.70;;;10.60;99.90;;;;;;4993466;28;20051;-69
2023/01/04 07:03:29;;;;;;;2.50;0.63;;;10.30;99.90;;;;;;5022142;28;20040;-68
2023/01/04 07:05:55;;;;;;;0.95;0.47;;;10.20;99.90;;;;;;5022257;28;20045;-68
2023/01/04 07:08:21;;;;;;;3.22;0.80;;;10.40;99.90;;;;;;5005403;28;20059;-68
2023/01/04 07:10:47;;;;;;;2.40;0.95;;;10.30;99.90;;;;;;5020945;28;20057;-69
2023/01/04 07:13:13;;;;;;;2.58;0.68;;;10.20;99.90;;;;;;5004670;28;20049;-69
2023/01/04 07:15:39;;;;;;;1.42;0.50;;;10.70;99.90;;;;;;5021249;28;20040;-68
2023/01/04 07:18:04;;;;;;;2.05;0.70;;;10.20;99.90;;;;;;5011528;28;20126;-69
2023/01/04 07:20:30;;;;;;;1.30;0.40;;;10.30;99.90;;;;;;5028301;28;20388;-69
2023/01/04 07:22:56;;;;;;;1.52;0.77;;;10.40;99.90;;;;;;5021221;28;20056;-68
2023/01/04 07:25:21;;;;;;;1.15;0.60;;;10.70;99.90;;;;;;5039131;28;20518;-69
2023/01/04 07:27:54;;;;;;;1.00;0.60;;;10.80;99.90;;;;;;5020680;28;20049;-68
2023/01/04 07:30:21;;;;;;;2.30;1.03;;;10.50;99.90;;;;;;5020733;28;21307;-69
2023/01/04 07:32:47;;;;;;;2.00;0.40;;;10.80;99.90;;;;;;5021522;28;20044;-67
2023/01/04 07:35:13;;;;;;;1.25;0.93;;;10.70;99.90;;;;;;5042435;28;20033;-67
2023/01/04 07:37:38;;;;;;;2.22;1.02;;;10.40;99.90;;;;;;5006296;28;20132;-66
2023/01/04 07:40:05;;;;;;;1.48;0.82;;;10.60;99.90;;;;;;5022426;28;20052;-66
2023/01/04 07:42:31;;;;;;;1.73;0.68;;;10.40;99.90;;;;;;5022276;28;20430;-69
2023/01/04 07:44:56;;;;;;;3.75;1.40;;;10.70;99.90;;;;;;5021319;28;20040;-69
2023/01/04 07:47:22;;;;;;;2.30;0.93;;;10.50;99.90;;;;;;5004114;28;20280;-68
2023/01/04 07:49:48;;;;;;;2.10;1.63;;;10.90;99.90;;;;;;5019216;28;20102;-68
2023/01/04 07:52:15;;;;;;;4.47;2.10;;;10.50;99.90;;;;;;5037768;28;20522;-68
2023/01/04 07:54:41;;;;;;;3.85;1.90;;;10.80;99.90;;;;;;5019063;28;20709;-68
2023/01/04 07:57:07;;;;;;;4.65;1.70;;;10.70;99.90;;;;;;5018207;28;20273;-69
2023/01/04 07:59:34;;;;;;;4.78;2.20;;;11.00;99.90;;;;;;5017932;28;20063;-69
2023/01/04 08:01:59;;;;;;;5.68;1.55;;;10.80;99.90;;;;;;5018360;28;20059;-68
2023/01/04 08:04:25;;;;;;;2.83;1.35;;;11.00;99.90;;;;;;5019165;28;20438;-69
2023/01/04 08:06:51;;;;;;;2.80;1.40;;;10.60;99.90;;;;;;5001877;28;20436;-68
2023/01/04 08:09:17;;;;;;;2.08;1.67;;;10.60;99.90;;;;;;5036735;28;20431;-67
2023/01/04 08:11:43;;;;;;;6.35;1.35;;;11.00;99.90;;;;;;5037015;28;20151;-69
2023/01/04 08:14:10;;;;;;;2.58;1.23;;;10.50;99.90;;;;;;4988878;28;20123;-68
2023/01/04 08:16:38;;;;;;;3.05;1.20;;;10.80;99.90;;;;;;5036875;28;20072;-69
2023/01/04 08:19:22;;;;;;;2.47;1.35;;;10.60;99.90;;;;;;5019073;28;20052;-68
2023/01/04 08:21:48;;;;;;;3.88;1.20;;;10.80;99.90;;;;;;5037641;28;20059;-69
2023/01/04 08:24:17;;;;;;;1.98;0.77;;;10.60;99.90;;;;;;5035751;28;20481;-68
2023/01/04 08:26:44;;;;;;;3.15;1.08;;;10.50;99.90;;;;;;5020928;28;20443;-68
2023/01/04 08:29:11;;;;;;;1.55;0.77;;;10.50;99.90;;;;;;5041593;28;20049;-68
2023/01/04 08:31:37;;;;;;;3.05;0.90;;;10.90;99.90;;;;;;5023704;28;20043;-68
2023/01/04 08:34:06;;;;;;;2.45;0.57;;;10.60;99.90;;;;;;5019358;28;20041;-68
2023/01/04 08:36:56;;;;;;;2.88;0.30;;;10.50;99.90;;;;;;5019255;28;20051;-68
2023/01/04 08:39:21;;;;;;;1.65;0.63;;;11.00;99.90;;;;;;5002250;28;20061;-67
2023/01/04 08:41:50;;;;;;;2.65;0.88;;;10.50;99.90;;;;;;5046194;28;20049;-66
2023/01/04 08:44:17;;;;;;;2.17;0.60;;;10.50;99.90;;;;;;5005377;28;20056;-67
2023/01/04 08:46:43;;;;;;;3.50;0.60;;;11.00;99.90;;;;;;5022100;28;20374;-67
2023/01/04 08:49:09;;;;;;;2.40;0.80;;;10.50;99.90;;;;;;5039261;28;20045;-67
2023/01/04 08:51:35;;;;;;;1.45;0.50;;;11.10;99.90;;;;;;5021943;28;20048;-66
2023/01/04 08:54:00;;;;;;;2.05;0.60;;;10.80;99.90;;;;;;5022246;28;20072;-68
2023/01/04 08:56:26;;;;;;;1.95;0.75;;;10.60;99.90;;;;;;4991364;28;20045;-67
2023/01/04 08:58:52;;;;;;;3.30;1.20;;;10.60;99.90;;;;;;5039842;28;20513;-68
2023/01/04 09:01:17;;;;;;;1.65;0.80;;;10.50;99.90;;;;;;5021738;28;20051;-67
2023/01/04 09:03:43;;;;;;;2.85;0.90;;;10.60;99.90;;;;;;5021897;28;20035;-65
2023/01/04 09:06:15;;;;;;;2.00;0.70;;;10.60;99.90;;;;;;5026976;28;20068;-66
2023/01/04 09:08:42;;;;;;;2.17;0.70;;;10.70;99.90;;;;;;5008507;28;20044;-65
2023/01/04 09:11:12;;;;;;;1.38;0.50;;;11.10;99.90;;;;;;5018961;28;20061;-67
2023/01/04 09:13:38;;;;;;;2.78;0.88;;;10.70;99.90;;;;;;5018863;28;20050;-67
2023/01/04 09:16:06;;;;;;;2.38;0.57;;;10.60;99.90;;;;;;5018667;28;20054;-66
2023/01/04 09:18:33;;;;;;;1.00;0.40;;;10.80;99.90;;;;;;5034890;28;20503;-67
2023/01/04 09:21:08;;;;;;;1.05;0.40;;;11.00;99.90;;;;;;5018546;28;20033;-67
2023/01/04 09:23:34;;;;;;;3.13;0.73;;;10.60;99.90;;;;;;5019054;28;20228;-67
2023/01/04 09:26:07;;;;;;;1.98;0.50;;;11.00;99.90;;;;;;5017977;28;20049;-65
2023/01/04 09:28:34;;;;;;;2.17;0.50;;;10.50;99.90;;;;;;5020701;28;20485;-65
2023/01/04 09:31:08;;;;;;;2.35;0.30;;;10.60;99.90;;;;;;5018644;28;20037;-65
2023/01/04 09:33:34;;;;;;;4.15;0.30;;;11.10;99.90;;;;;;5018884;28;20056;-67
2023/01/04 09:36:04;;;;;;;1.95;0.30;;;11.10;99.90;;;;;;5018355;28;20094;-65
2023/01/04 09:38:31;;;;;;;4.63;0.40;;;10.70;99.90;;;;;;5019793;28;20131;-66
2023/01/04 09:41:11;;;;;;;1.73;0.43;;;11.10;99.90;;;;;;5018418;28;20057;-66
2023/01/04 09:43:46;;;;;;;3.13;0.30;;;11.10;99.90;;;;;;5019602;28;20695;-66
2023/01/04 09:46:36;;;;;;;1.30;0.43;;;11.10;99.90;;;;;;5019368;28;20398;-66
2023/01/04 09:49:40;;;;;;;3.85;0.70;;;11.10;99.90;;;;;;5001322;28;20053;-66
2023/01/04 09:52:08;;;;;;;4.88;0.90;;;11.00;99.90;;;;;;5020108;28;20143;-66
2023/01/04 09:54:56;;;;;;;4.25;0.55;;;10.70;99.90;;;;;;4999366;28;20729;-66
2023/01/04 09:57:27;;;;;;;4.25;0.75;;;10.90;99.90;;;;;;5019311;28;20045;-66
2023/01/04 10:00:18;;;;;;;5.05;1.10;;;10.70;99.90;;;;;;5019702;28;20056;-65
2023/01/04 10:03:10;;;;;;;9.30;1.40;;;11.20;99.90;;;;;;5018551;28;20598;-65
2023/01/04 10:05:36;;;;;;;7.88;1.75;;;10.70;99.90;;;;;;5016473;28;20056;-67
2023/01/04 10:08:02;;;;;;;9.27;0.93;;;10.90;99.90;;;;;;5017191;28;20045;-68
2023/01/04 10:11:09;;;;;;;5.78;1.00;;;11.30;99.90;;;;;;5000344;28;20054;-67
2023/01/04 10:13:48;;;;;;;8.45;1.33;;;11.10;99.90;;;;;;4989851;28;20047;-67
2023/01/04 10:16:32;;;;;;;9.95;1.27;;;10.90;99.90;;;;;;5001673;28;20950;-68
2023/01/04 10:19:17;;;;;;;11.18;2.13;;;11.30;99.90;;;;;;5018071;28;20160;-67
2023/01/04 10:22:10;;;;;;;13.32;2.45;;;10.90;99.90;;;;;;5018330;28;20479;-67
2023/01/04 10:24:59;;;;;;;10.87;1.73;;;11.00;99.90;;;;;;5005486;28;20140;-67
2023/01/04 10:27:40;;;;;;;13.02;1.67;;;10.80;99.90;;;;;;5017483;28;20100;-66
2023/01/04 10:30:24;;;;;;;11.00;1.98;;;11.50;99.90;;;;;;5020478;28;20533;-67
2023/01/04 10:33:11;;;;;;;13.00;2.17;;;11.50;99.90;;;;;;4991744;28;20151;-67
2023/01/04 10:35:39;;;;;;;16.35;2.22;;;11.50;99.90;;;;;;5021522;28;20037;-68
2023/01/04 10:38:20;;;;;;;15.25;2.28;;;11.00;99.90;;;;;;5021528;28;20033;-67
2023/01/04 10:40:47;;;;;;;16.33;2.58;;;11.60;99.90;;;;;;5004570;28;20051;-68
2023/01/04 10:43:31;;;;;;;20.95;2.60;;;10.90;99.90;;;;;;5021710;28;20048;-67
2023/01/04 10:46:08;;;;;;;13.75;1.70;;;11.00;99.90;;;;;;5022326;28;20043;-66
2023/01/04 10:48:43;;;;;;;19.30;2.58;;;11.30;99.90;;;;;;5022377;28;20045;-66
2023/01/04 10:51:10;;;;;;;19.95;2.63;;;11.60;99.90;;;;;;5021091;28;20176;-67
2023/01/04 10:53:43;;;;;;;19.95;2.22;;;11.50;99.90;;;;;;5022477;28;20042;-67
2023/01/04 10:56:33;;;;;;;16.33;2.55;;;11.10;99.90;;;;;;5022629;28;20149;-67
2023/01/04 10:59:04;;;;;;;19.23;2.70;;;11.40;99.90;;;;;;5022536;28;20406;-67
2023/01/04 11:01:40;;;;;;;14.00;1.83;;;11.20;99.90;;;;;;5021988;28;20052;-66
2023/01/04 11:04:24;;;;;;;18.02;2.70;;;11.60;99.90;;;;;;5022167;28;20044;-66
2023/01/04 11:07:13;;;;;;;;;;;11.30;99.90;;;;;;5021442;28;20418;-66
2023/01/04 11:09:42;;;;;;;17.88;3.03;;;11.50;99.90;;;;;;5018189;28;19933;-66
2023/01/04 11:12:09;;;;;;;23.52;3.42;;;11.30;99.90;;;;;;5024089;28;20052;-66
2023/01/04 11:14:35;;;;;;;20.92;3.30;;;11.30;99.90;;;;;;5042015;28;20102;-68
2023/01/04 11:17:04;;;;;;;26.35;3.67;;;11.20;99.90;;;;;;4990440;28;20036;-68
2023/01/04 11:19:32;;;;;;;24.33;2.47;;;11.80;99.90;;;;;;4999516;28;20084;-67
2023/01/04 11:22:05;;;;;;;20.48;2.95;;;11.40;99.90;;;;;;5006968;28;20114;-68
2023/01/04 11:24:31;;;;;;;28.33;3.35;;;11.60;99.90;;;;;;5041884;28;20033;-67
2023/01/04 11:27:09;;;;;;;24.23;3.08;;;11.40;99.90;;;;;;5025740;28;20127;-68
2023/01/04 11:29:41;;;;;;;27.10;4.28;;;11.80;99.90;;;;;;5023853;28;20041;-67
2023/01/04 11:32:34;;;;;;;20.80;3.38;;;11.80;99.90;;;;;;5040849;28;20040;-68
2023/01/04 11:35:00;;;;;;;27.30;3.90;;;11.80;99.90;;;;;;5023621;28;20212;-68
2023/01/04 11:37:34;;;;;;;22.83;3.30;;;11.70;99.90;;;;;;5023728;28;20313;-66
2023/01/04 11:40:18;;;;;;;26.17;4.20;;;11.70;99.90;;;;;;5023291;28;20084;-67
2023/01/04 11:42:44;;;;;;;;;;;11.50;99.90;;;;;;5024096;28;20045;-68
2023/01/04 11:45:22;;;;;;;27.63;3.85;;;11.70;99.90;;;;;;5023957;28;19920;-66
2023/01/04 11:47:50;;;;;;;28.73;4.07;;;11.50;99.90;;;;;;5022989;28;20071;-67
2023/01/04 11:50:33;;;;;;;25.70;3.63;;;11.50;99.90;;;;;;5040697;28;20040;-68
2023/01/04 11:52:59;;;;;;;17.88;2.33;;;11.80;99.90;;;;;;5023732;28;20511;-67
2023/01/04 11:55:27;;;;;;;14.68;2.13;;;11.80;99.90;;;;;;5041614;28;20072;-66
2023/01/04 11:58:09;;;;;;;19.08;2.75;;;11.70;99.90;;;;;;5022834;28;20095;-65
2023/01/04 12:00:35;;;;;;;18.73;2.08;;;11.60;99.90;;;;;;5020590;28;20205;-66
2023/01/04 12:03:28;;;;;;;13.65;2.05;;;11.60;99.90;;;;;;5023623;28;20066;-66
2023/01/04 12:05:55;;;;;;;14.53;2.00;;;11.80;99.90;;;;;;5041593;28;20123;-66
2023/01/04 12:08:33;;;;;;;18.48;2.75;;;11.70;99.90;;;;;;5006247;28;20040;-65
2023/01/04 12:11:01;;;;;;;21.15;3.00;;;11.80;99.90;;;;;;5041542;28;20159;-66
2023/01/04 12:13:28;;;;;;;21.90;3.35;;;11.70;99.90;;;;;;5040922;28;20189;-66
2023/01/04 12:16:02;;;;;;;19.02;2.63;;;11.70;99.90;;;;;;5040808;28;20375;-63
2023/01/04 12:18:33;;;;;;;25.00;3.50;;;11.80;99.90;;;;;;5023548;28;20041;-63
2023/01/04 12:21:01;;;;;;;18.35;3.40;;;11.70;99.90;;;;;;5023823;28;20111;-62
2023/01/04 12:23:27;;;;;;;22.13;3.22;;;11.60;99.90;;;;;;5040463;28;20060;-63
2023/01/04 12:25:54;;;;;;;14.55;2.03;;;11.60;99.90;;;;;;5006422;28;20038;-64
2023/01/04 12:28:40;;;;;;;15.98;2.30;;;11.70;99.90;;;;;;5022919;28;20048;-64
2023/01/04 12:31:18;;;;;;;17.38;2.17;;;11.80;99.90;;;;;;5023862;28;20464;-64
2023/01/04 12:33:45;;;;;;;22.15;3.03;;;11.60;99.90;;;;;;5040350;28;20128;-64
2023/01/04 12:36:13;;;;;;;14.70;2.33;;;11.80;99.90;;;;;;5006666;28;20048;-64
2023/01/04 12:38:51;;;;;;;17.92;2.95;;;11.80;99.90;;;;;;5006404;28;20045;-64
2023/01/04 12:41:32;;;;;;;19.67;2.63;;;11.70;99.90;;;;;;5023089;28;20091;-64
2023/01/04 12:43:58;;;;;;;19.88;2.63;;;11.80;99.90;;;;;;5026737;28;20048;-64
2023/01/04 12:49:26;;;;;;;21.08;2.83;;;11.60;99.90;;;;;;5021872;28;20077;-64
2023/01/04 12:52:07;;;;;;;17.77;2.40;;;11.80;99.90;;;;;;5040231;28;20450;-64
2023/01/04 12:54:53;;;;;;;16.35;2.08;;;11.70;99.90;;;;;;5021720;28;20051;-63
2023/01/04 12:57:30;;;;;;;18.30;2.67;;;11.70;99.90;;;;;;5022112;28;20085;-65
2023/01/04 12:59:56;;;;;;;15.73;2.95;;;11.80;99.90;;;;;;5008155;28;20040;-64
2023/01/04 13:02:30;;;;;;;15.82;2.53;;;11.60;99.90;;;;;;5040108;28;20513;-67
2023/01/04 13:05:20;;;;;;;14.55;2.10;;;11.80;99.90;;;;;;5039752;28;20032;-64
2023/01/04 13:07:48;;;;;;;21.20;2.10;;;11.70;99.90;;;;;;5021619;28;20080;-63
2023/01/04 13:10:39;;;;;;;11.52;1.67;;;11.70;99.90;;;;;;5036032;28;20084;-65
2023/01/04 13:13:16;;;;;;;12.00;1.30;;;11.70;99.90;;;;;;5039650;28;20037;-63
2023/01/04 13:16:10;;;;;;;10.15;1.60;;;11.80;99.90;;;;;;5040047;28;20040;-63
2023/01/04 13:18:46;;;;;;;12.27;1.85;;;11.80;99.90;;;;;;5021836;28;20041;-63
2023/01/04 13:21:30;;;;;;;13.80;1.70;;;11.70;99.90;;;;;;5040391;28;20065;-63
2023/01/04 13:24:03;;;;;;;13.70;2.17;;;11.80;99.90;;;;;;5039948;28;20083;-64
2023/01/04 13:26:38;;;;;;;12.30;1.55;;;11.70;99.90;;;;;;5005859;28;20045;-64
2023/01/04 13:29:28;;;;;;;14.05;1.42;;;11.60;99.90;;;;;;5021914;28;20091;-63
2023/01/04 13:31:55;;;;;;;10.80;1.38;;;11.60;99.90;;;;;;5039900;28;20033;-64
2023/01/04 13:34:25;;;;;;;14.57;1.73;;;11.70;99.90;;;;;;5021401;28;20052;-64
2023/01/04 13:37:10;;;;;;;11.32;1.75;;;11.70;99.90;;;;;;5021680;28;20376;-64
2023/01/04 13:39:48;;;;;;;11.75;1.70;;;11.70;99.90;;;;;;5039680;28;20048;-64
2023/01/04 13:42:33;;;;;;;11.80;1.58;;;11.80;99.90;;;;;;5004661;28;20079;-63
2023/01/04 13:45:20;;;;;;;10.60;1.42;;;11.80;99.90;;;;;;5039300;28;20055;-63
2023/01/04 13:47:49;;;;;;;10.77;1.30;;;11.90;99.90;;;;;;5025574;28;20041;-64
2023/01/04 13:51:03;;;;;;;11.23;1.45;;;11.90;99.90;;;;;;5049857;28;20063;-63